Time;durP1;ratioP1;P1;durP2;ratioP2;P2;SDS_P1;SDS_P2;PMS_P1;PMS_P2;Temp;Humidity;BMP_temperature;BMP_pressure;BME280_temperature;BME280_humidity;BME280_pressure;Samples;Min_cycle;Max_cycle;Signal;HPM_P1;HPM_P2
2021/04/10 00:00:36;;;;;;;6.20;3.55;;;9.00;89.00;;;;;;6217806;28;20041;-80
2021/04/10 00:03:36;;;;;;;5.03;3.33;;;8.20;89.30;;;;;;6185418;28;20073;-80
2021/04/10 00:06:37;;;;;;;6.30;3.42;;;8.60;89.60;;;;;;6201466;28;20037;-80
2021/04/10 00:09:37;;;;;;;6.93;3.42;;;8.10;89.80;;;;;;6201333;28;20117;-80
2021/04/10 00:12:39;;;;;;;7.20;3.80;;;8.00;90.10;;;;;;6201307;28;20077;-80
2021/04/10 00:15:39;;;;;;;7.03;3.42;;;7.90;90.30;;;;;;6191248;28;20030;-80
2021/04/10 00:18:40;;;;;;;5.97;3.30;;;7.70;90.40;;;;;;6217627;28;20033;-80
2021/04/10 00:21:40;;;;;;;5.18;3.25;;;8.00;90.60;;;;;;6192110;28;20112;-81
2021/04/10 00:24:41;;;;;;;4.30;3.20;;;7.70;91.10;;;;;;6217222;28;20037;-80
2021/04/10 00:27:41;;;;;;;4.63;3.00;;;7.90;91.00;;;;;;6208754;28;20077;-80
2021/04/10 00:30:42;;;;;;;6.18;3.33;;;9.00;90.20;;;;;;6217054;28;20062;-80
2021/04/10 00:33:43;;;;;;;5.10;3.25;;;7.80;89.80;;;;;;6218779;28;20068;-80
2021/04/10 00:36:43;;;;;;;3.25;2.60;;;8.20;88.90;;;;;;6214507;28;20501;-81
2021/04/10 00:39:44;;;;;;;5.03;2.95;;;8.50;97.80;;;;;;6217053;28;20148;-80
2021/04/10 00:42:44;;;;;;;5.18;2.42;;;8.90;97.20;;;;;;6201609;28;20416;-80
2021/04/10 00:45:45;;;;;;;3.08;2.25;;;8.70;89.00;;;;;;6205470;28;20045;-80
2021/04/10 00:48:46;;;;;;;5.25;2.70;;;9.70;87.10;;;;;;6202920;28;20317;-80
2021/04/10 00:51:46;;;;;;;4.53;3.10;;;9.40;95.60;;;;;;6201627;28;20439;-80
2021/04/10 00:54:48;;;;;;;5.07;2.35;;;9.70;85.60;;;;;;6191005;28;20036;-80
2021/04/10 00:57:48;;;;;;;6.17;2.40;;;9.70;84.00;;;;;;6221683;28;20064;-80
2021/04/10 01:00:49;;;;;;;11.63;2.75;;;10.30;82.30;;;;;;6219226;28;20038;-80
2021/04/10 01:03:50;;;;;;;4.82;2.45;;;9.90;92.00;;;;;;6221368;28;20072;-80
2021/04/10 01:06:50;;;;;;;5.25;2.80;;;10.40;80.50;;;;;;6221130;28;20481;-80
2021/04/10 01:09:51;;;;;;;5.72;2.30;;;10.20;94.00;;;;;;6211852;28;20076;-80
2021/04/10 01:13:00;;;;;;;7.47;2.90;;;9.70;81.40;;;;;;6200466;28;20052;-80
2021/04/10 01:16:08;;;;;;;4.00;2.45;;;10.00;98.40;;;;;;6223066;28;20034;-80
2021/04/10 01:19:31;;;;;;;5.90;2.75;;;10.10;97.40;;;;;;6221201;28;20031;-80
2021/04/10 01:22:41;;;;;;;6.57;2.65;;;9.90;93.60;;;;;;6222555;28;20617;-80
2021/04/10 01:25:57;;;;;;;4.85;2.60;;;10.00;90.00;;;;;;6204386;28;20060;-80
2021/04/10 01:29:00;;;;;;;6.13;2.83;;;10.10;96.30;;;;;;6221222;28;20025;-80
2021/04/10 01:32:00;;;;;;;6.43;2.53;;;9.90;98.30;;;;;;6220871;28;20045;-81
2021/04/10 01:35:06;;;;;;;6.93;2.58;;;10.10;90.90;;;;;;6213638;28;20874;-81
2021/04/10 01:38:08;;;;;;;5.90;2.42;;;10.10;97.90;;;;;;6195907;28;20117;-80
2021/04/10 01:41:08;;;;;;;3.90;2.30;;;10.50;90.80;;;;;;6216150;28;20084;-80
2021/04/10 01:44:09;;;;;;;8.18;2.70;;;10.50;90.40;;;;;;6221045;28;20507;-80
2021/04/10 01:47:12;;;;;;;7.75;2.70;;;10.40;77.60;;;;;;6196997;28;20030;-80
2021/04/10 01:50:12;;;;;;;;;;;10.80;77.40;;;;;;6221007;28;20021;-80
2021/04/10 01:53:13;;;;;;;6.13;2.60;;;10.40;77.30;;;;;;6213984;28;19917;-80
2021/04/10 01:56:14;;;;;;;6.60;2.63;;;11.10;77.30;;;;;;6187788;28;20036;-80
2021/04/10 01:59:18;;;;;;;3.17;2.50;;;10.60;77.30;;;;;;6242546;28;20495;-80
2021/04/10 02:02:18;;;;;;;6.40;2.55;;;10.00;76.80;;;;;;6244654;28;20550;-80
2021/04/10 02:05:19;;;;;;;5.10;2.55;;;10.50;76.20;;;;;;6245210;28;20037;-79
2021/04/10 02:08:19;;;;;;;3.22;2.50;;;10.50;77.40;;;;;;6246080;28;20090;-79
2021/04/10 02:11:22;;;;;;;4.70;2.50;;;10.70;91.30;;;;;;6231767;28;20109;-80
2021/04/10 02:14:23;;;;;;;5.28;2.75;;;10.50;80.30;;;;;;6217814;28;20060;-81
2021/04/10 02:17:23;;;;;;;3.63;2.22;;;10.50;76.20;;;;;;6196506;28;20033;-80
2021/04/10 02:20:41;;;;;;;3.80;2.78;;;10.50;71.60;;;;;;6219639;28;20032;-80
2021/04/10 02:23:42;;;;;;;4.53;2.20;;;13.60;79.60;;;;;;6193921;28;20030;-80
2021/04/10 02:27:08;;;;;;;4.85;2.60;;;10.40;90.50;;;;;;6203559;28;20032;-80
2021/04/10 02:30:09;;;;;;;4.97;2.75;;;12.20;73.50;;;;;;6219816;28;20040;-80
2021/04/10 02:33:13;;;;;;;3.63;2.30;;;10.40;74.80;;;;;;6219299;28;20041;-80
2021/04/10 02:36:15;;;;;;;6.82;2.85;;;10.00;74.70;;;;;;6188493;28;20056;-80
2021/04/10 02:39:16;;;;;;;6.00;2.53;;;10.50;86.60;;;;;;6219298;28;20136;-80
2021/04/10 02:42:16;;;;;;;4.40;2.40;;;11.00;74.10;;;;;;6217125;28;20030;-80
2021/04/10 02:45:22;;;;;;;5.32;2.58;;;10.70;90.60;;;;;;6219143;28;20042;-80
2021/04/10 02:48:24;;;;;;;6.25;2.67;;;11.20;74.00;;;;;;6218017;28;20133;-80
2021/04/10 02:51:28;;;;;;;3.92;2.38;;;10.60;73.20;;;;;;6187223;28;20076;-80
2021/04/10 02:54:31;;;;;;;4.07;2.45;;;11.00;72.70;;;;;;6202920;28;20049;-80
2021/04/10 02:57:32;;;;;;;3.40;2.08;;;11.00;72.10;;;;;;6219400;28;20068;-80
2021/04/10 03:00:33;;;;;;;2.90;2.30;;;11.20;72.30;;;;;;6214420;28;20044;-80
2021/04/10 03:03:34;;;;;;;3.35;2.47;;;10.90;88.60;;;;;;6218998;28;20064;-80
2021/04/10 03:06:34;;;;;;;4.68;2.33;;;10.70;89.20;;;;;;6207996;28;20116;-80
2021/04/10 03:09:38;;;;;;;2.50;2.30;;;10.80;71.90;;;;;;6187479;28;20030;-80
2021/04/10 03:12:39;;;;;;;3.28;2.22;;;10.70;89.50;;;;;;6218547;28;20050;-80
2021/04/10 03:15:40;;;;;;;3.42;2.20;;;10.80;71.70;;;;;;6202932;28;20076;-80
2021/04/10 03:18:44;;;;;;;6.32;2.17;;;10.90;70.40;;;;;;6186681;28;20411;-80
2021/04/10 03:21:45;;;;;;;6.43;2.10;;;10.80;87.40;;;;;;6218334;28;20503;-80
2021/04/10 03:24:45;;;;;;;3.75;2.10;;;11.20;69.70;;;;;;6218481;28;20033;-80
2021/04/10 03:27:47;;;;;;;3.53;2.13;;;10.60;86.70;;;;;;6207896;28;20161;-80
2021/04/10 03:30:48;;;;;;;3.75;2.47;;;10.90;69.20;;;;;;6189254;28;20030;-80
2021/04/10 03:33:48;;;;;;;3.38;2.10;;;11.20;70.20;;;;;;6186391;28;20115;-80
2021/04/10 03:36:49;;;;;;;6.38;2.40;;;11.10;86.30;;;;;;6218425;28;20484;-80
2021/04/10 03:39:50;;;;;;;3.80;2.15;;;;;;;;;;6191178;28;20510;-80
2021/04/10 03:42:51;;;;;;;3.17;2.25;;;10.70;65.30;;;;;;6219988;28;20568;-80
2021/04/10 03:45:51;;;;;;;3.15;2.10;;;10.80;68.60;;;;;;6201753;28;20060;-80
2021/04/10 03:48:52;;;;;;;5.63;2.35;;;11.10;68.50;;;;;;6213775;28;20427;-80
2021/04/10 03:51:52;;;;;;;2.85;2.08;;;10.50;68.10;;;;;;6211505;28;20047;-80
2021/04/10 03:54:53;;;;;;;5.90;2.60;;;10.50;93.80;;;;;;6186257;28;20030;-80
2021/04/10 03:57:54;;;;;;;5.80;2.40;;;10.60;93.60;;;;;;6217900;28;20033;-80
2021/04/10 04:00:55;;;;;;;10.07;2.40;;;10.90;93.50;;;;;;6205094;28;20528;-80
2021/04/10 04:03:55;;;;;;;3.65;2.00;;;10.40;92.40;;;;;;6214227;28;20030;-80
2021/04/10 04:06:56;;;;;;;5.20;2.33;;;10.60;82.50;;;;;;6196083;28;20192;-80
2021/04/10 04:09:56;;;;;;;7.80;2.90;;;10.50;82.00;;;;;;6215244;28;20385;-80
2021/04/10 04:12:57;;;;;;;2.60;2.03;;;11.10;92.90;;;;;;6219246;28;20041;-80
2021/04/10 04:15:58;;;;;;;4.68;2.30;;;;;;;;;;6201413;28;20057;-80
2021/04/10 04:18:59;;;;;;;2.90;2.00;;;10.40;84.80;;;;;;6217453;28;20029;-80
2021/04/10 04:22:00;;;;;;;5.95;2.15;;;;;;;;;;6200898;28;20540;-80
2021/04/10 04:25:00;;;;;;;2.63;2.05;;;10.40;93.30;;;;;;6219177;28;20369;-80
2021/04/10 04:28:01;;;;;;;3.30;1.90;;;10.40;88.10;;;;;;6200843;28;20148;-80
2021/04/10 04:31:02;;;;;;;4.03;2.15;;;;;;;;;;6200669;28;20084;-80
2021/04/10 04:34:03;;;;;;;2.95;1.88;;;10.40;79.50;;;;;;6219008;28;20472;-80
2021/04/10 04:37:04;;;;;;;2.38;2.15;;;;;;;;;;6201295;28;20041;-80
2021/04/10 04:40:06;;;;;;;3.95;2.20;;;10.70;82.70;;;;;;6216925;28;20076;-80
2021/04/10 04:43:06;;;;;;;14.13;3.47;;;10.40;94.20;;;;;;6190653;28;20042;-80
2021/04/10 04:46:07;;;;;;;4.22;2.33;;;;;;;;;;6210180;28;20561;-80
2021/04/10 04:49:08;;;;;;;3.30;1.90;;;;;;;;;;6218614;28;20547;-80
2021/04/10 04:52:09;;;;;;;4.65;2.30;;;10.80;81.00;;;;;;6233930;28;20399;-80
2021/04/10 04:55:10;;;;;;;3.25;2.40;;;10.30;70.50;;;;;;6200761;28;20034;-80
2021/04/10 04:58:10;;;;;;;4.05;2.25;;;10.30;69.20;;;;;;6200695;28;20468;-80
2021/04/10 05:01:11;;;;;;;5.22;2.35;;;10.60;70.90;;;;;;6217096;28;20077;-80
2021/04/10 05:04:12;;;;;;;5.00;2.53;;;10.50;71.40;;;;;;6200744;28;20524;-80
2021/04/10 05:07:12;;;;;;;2.95;2.28;;;10.20;74.00;;;;;;6206797;28;20056;-80
2021/04/10 05:10:13;;;;;;;2.70;2.05;;;10.10;74.30;;;;;;6201586;28;20026;-80
2021/04/10 05:13:13;;;;;;;5.97;2.20;;;10.20;73.60;;;;;;6216770;28;20042;-80
2021/04/10 05:16:14;;;;;;;3.55;2.40;;;10.00;75.20;;;;;;6217278;28;20049;-80
2021/04/10 05:19:14;;;;;;;3.28;2.10;;;10.40;77.20;;;;;;6202992;28;20034;-80
2021/04/10 05:22:15;;;;;;;4.65;2.40;;;10.00;92.70;;;;;;6202712;28;20116;-80
2021/04/10 05:25:16;;;;;;;5.05;2.40;;;9.90;79.00;;;;;;6217162;28;20029;-80
2021/04/10 05:28:16;;;;;;;4.93;2.22;;;9.90;80.30;;;;;;6200536;28;20030;-80
2021/04/10 05:31:17;;;;;;;3.80;2.70;;;9.70;95.40;;;;;;6219606;28;20105;-80
2021/04/10 05:34:17;;;;;;;10.48;2.97;;;10.30;85.50;;;;;;6203078;28;20034;-80
2021/04/10 05:37:18;;;;;;;3.28;2.15;;;10.10;94.60;;;;;;6220651;28;20030;-80
2021/04/10 05:40:19;;;;;;;3.92;2.10;;;9.70;83.00;;;;;;6214147;28;20072;-80
2021/04/10 05:43:20;;;;;;;4.03;2.17;;;9.70;81.90;;;;;;6205676;28;20449;-81
2021/04/10 05:46:20;;;;;;;2.72;2.28;;;9.80;83.30;;;;;;6219364;28;20030;-80
2021/04/10 05:49:21;;;;;;;6.47;2.78;;;10.20;84.50;;;;;;6220904;28;20053;-80
2021/04/10 05:52:22;;;;;;;4.10;2.30;;;10.00;86.40;;;;;;6204351;28;20042;-80
2021/04/10 05:55:22;;;;;;;3.00;2.20;;;9.70;97.10;;;;;;6205622;28;20034;-80
2021/04/10 05:58:23;;;;;;;3.60;2.20;;;9.80;89.10;;;;;;6188901;28;20026;-80
2021/04/10 06:01:28;;;;;;;3.40;2.40;;;9.70;88.80;;;;;;6220486;28;20030;-80
2021/04/10 06:04:29;;;;;;;4.13;2.30;;;9.70;98.00;;;;;;6220554;28;20464;-80
2021/04/10 06:07:29;;;;;;;3.20;2.40;;;9.70;90.10;;;;;;6203864;28;20033;-80
2021/04/10 06:10:30;;;;;;;4.18;2.20;;;9.80;89.60;;;;;;6221796;28;20061;-80
2021/04/10 06:13:31;;;;;;;5.25;2.40;;;9.60;96.40;;;;;;6220335;28;20045;-80
2021/04/10 06:16:31;;;;;;;4.07;2.50;;;10.10;90.70;;;;;;6188869;28;20461;-80
2021/04/10 06:19:32;;;;;;;4.22;2.22;;;9.40;91.30;;;;;;6220265;28;20103;-80
2021/04/10 06:22:32;;;;;;;4.82;2.72;;;9.40;98.90;;;;;;6203710;28;20030;-80
2021/04/10 06:25:33;;;;;;;2.90;2.10;;;9.90;91.70;;;;;;6220475;28;20041;-81
2021/04/10 06:28:33;;;;;;;3.25;2.38;;;9.50;99.40;;;;;;6220359;28;20029;-80
2021/04/10 06:31:34;;;;;;;3.03;2.33;;;9.60;92.10;;;;;;6204480;28;20108;-80
2021/04/10 06:34:35;;;;;;;4.93;2.33;;;9.90;91.70;;;;;;6220063;28;20040;-80
2021/04/10 06:37:36;;;;;;;4.70;2.47;;;9.70;99.50;;;;;;6203288;28;20034;-80
2021/04/10 06:40:36;;;;;;;2.80;2.25;;;9.50;97.70;;;;;;6219383;28;20088;-80
2021/04/10 06:43:52;;;;;;;3.10;2.33;;;9.80;98.90;;;;;;6188110;28;20040;-80
2021/04/10 06:46:53;;;;;;;2.97;2.30;;;9.70;97.20;;;;;;6217459;28;20125;-80
2021/04/10 06:49:53;;;;;;;2.50;2.30;;;9.70;91.60;;;;;;6187426;28;20033;-80
2021/04/10 06:52:54;;;;;;;3.88;2.90;;;;;;;;;;6219544;28;20126;-80
2021/04/10 06:55:56;;;;;;;4.60;3.45;;;9.70;91.40;;;;;;6220112;28;20040;-80
2021/04/10 06:59:02;;;;;;;4.25;2.38;;;9.80;92.00;;;;;;6188045;28;20107;-80
2021/04/10 07:02:05;;;;;;;4.25;2.42;;;9.80;91.70;;;;;;6220670;28;20112;-80
2021/04/10 07:05:06;;;;;;;2.38;2.13;;;9.80;91.90;;;;;;6187886;28;20435;-80
2021/04/10 07:08:07;;;;;;;4.25;2.45;;;9.90;91.00;;;;;;6220831;28;20037;-80
2021/04/10 07:11:07;;;;;;;4.55;2.20;;;10.00;91.00;;;;;;6202142;28;20058;-80
2021/04/10 07:14:08;;;;;;;4.93;2.65;;;10.10;96.60;;;;;;6220847;28;20037;-80
2021/04/10 07:17:11;;;;;;;5.20;2.30;;;10.20;90.80;;;;;;6204744;28;20040;-80
2021/04/10 07:20:24;;;;;;;;;;;10.30;90.20;;;;;;6219194;28;20117;-80
2021/04/10 07:23:25;;;;;;;3.45;2.50;;;10.30;86.00;;;;;;6218368;28;20241;-80
2021/04/10 07:26:45;;;;;;;3.85;2.80;;;10.60;99.90;;;;;;6218279;28;20045;-80
2021/04/10 07:29:47;;;;;;;2.97;2.40;;;10.70;85.90;;;;;;6203984;28;20061;-80
2021/04/10 07:32:48;;;;;;;2.45;2.25;;;10.80;99.90;;;;;;6218807;28;20112;-80
2021/04/10 07:35:49;;;;;;;5.18;2.45;;;;;;;;;;6218018;28;20088;-80
2021/04/10 07:38:56;;;;;;;3.53;2.10;;;10.70;91.70;;;;;;6218595;28;20144;-81
2021/04/10 07:42:04;;;;;;;4.38;2.20;;;10.70;99.90;;;;;;6188430;28;20479;-81
2021/04/10 07:45:24;;;;;;;2.92;2.40;;;11.10;99.90;;;;;;6202868;28;20076;-80
2021/04/10 07:48:25;;;;;;;4.75;3.00;;;11.20;92.30;;;;;;6216235;28;20092;-80
2021/04/10 07:51:27;;;;;;;2.95;2.50;;;;;;;;;;6218140;28;20384;-80
2021/04/10 07:54:28;;;;;;;4.10;2.72;;;;;;;;;;6217366;28;20033;-80
2021/04/10 07:57:29;;;;;;;9.98;6.47;;;11.00;98.60;;;;;;6220042;28;20105;-80
2021/04/10 08:00:50;;;;;;;4.63;3.03;;;11.20;90.80;;;;;;6185806;28;20056;-80
2021/04/10 08:03:57;;;;;;;14.18;12.75;;;11.10;98.30;;;;;;6209239;28;20038;-80
2021/04/10 08:06:59;;;;;;;6.18;3.50;;;13.40;92.40;;;;;;6217481;28;20030;-81
2021/04/10 08:10:07;;;;;;;5.68;4.53;;;11.20;97.40;;;;;;6217898;28;20034;-81
2021/04/10 08:13:08;;;;;;;3.30;2.70;;;11.20;91.40;;;;;;6205574;28;20044;-80
2021/04/10 08:16:16;;;;;;;5.53;4.07;;;11.20;87.10;;;;;;6217890;28;20468;-81
2021/04/10 08:19:17;;;;;;;6.38;4.88;;;11.50;97.20;;;;;;6214900;28;20052;-80
2021/04/10 08:22:18;;;;;;;4.22;2.40;;;;;;;;;;6217249;28;20504;-80
2021/04/10 08:25:34;;;;;;;3.70;3.00;;;11.30;94.20;;;;;;6201387;28;20029;-80
2021/04/10 08:28:37;;;;;;;3.95;3.05;;;11.50;96.70;;;;;;6217436;28;20076;-81
2021/04/10 08:31:38;;;;;;;4.10;2.63;;;11.70;85.40;;;;;;6216956;28;20034;-81
2021/04/10 08:34:39;;;;;;;4.35;2.53;;;;;;;;;;6217086;28;20104;-81
2021/04/10 08:38:00;;;;;;;4.35;2.42;;;12.20;78.80;;;;;;6218885;28;20037;-80
2021/04/10 08:41:03;;;;;;;3.05;1.65;;;12.10;80.50;;;;;;6215698;28;20140;-81
2021/04/10 08:44:04;;;;;;;3.60;1.95;;;12.40;81.70;;;;;;6207402;28;20030;-81
2021/04/10 08:47:05;;;;;;;3.95;2.97;;;;;;;;;;6186580;28;20034;-80
2021/04/10 08:50:06;;;;;;;2.45;2.10;;;12.80;77.10;;;;;;6216753;28;20037;-79
2021/04/10 08:53:15;;;;;;;2.95;2.20;;;13.20;79.90;;;;;;6184664;28;20046;-81
2021/04/10 08:56:19;;;;;;;2.38;2.15;;;13.00;62.30;;;;;;6217198;28;20540;-80
2021/04/10 08:59:23;;;;;;;2.80;2.20;;;13.20;64.40;;;;;;6201203;28;20030;-80
2021/04/10 09:02:24;;;;;;;2.53;2.13;;;13.20;63.70;;;;;;6217043;28;20125;-81
2021/04/10 09:05:43;;;;;;;6.00;5.50;;;13.40;63.00;;;;;;6186162;28;20038;-81
2021/04/10 09:08:44;;;;;;;2.88;2.20;;;13.50;59.80;;;;;;6205635;28;20026;-80
2021/04/10 09:11:46;;;;;;;1.88;1.50;;;13.70;59.10;;;;;;6221456;28;20034;-80
2021/04/10 09:14:47;;;;;;;2.70;1.70;;;13.80;71.90;;;;;;6205767;28;20464;-80
2021/04/10 09:17:54;;;;;;;1.83;1.55;;;13.80;59.30;;;;;;6221301;28;20026;-80
2021/04/10 09:20:55;;;;;;;5.30;1.70;;;14.10;60.60;;;;;;6221164;28;20058;-80
2021/04/10 09:23:55;;;;;;;9.30;2.65;;;14.10;75.90;;;;;;6220612;28;20121;-80
2021/04/10 09:27:03;;;;;;;2.28;1.40;;;14.10;58.70;;;;;;6221385;28;20030;-80
2021/04/10 09:30:05;;;;;;;2.10;1.40;;;14.20;54.40;;;;;;6204325;28;20030;-80
2021/04/10 09:33:28;;;;;;;1.70;1.60;;;14.30;55.20;;;;;;6204536;28;20096;-80
2021/04/10 09:36:58;;;;;;;3.80;1.60;;;14.60;55.10;;;;;;6222740;28;20514;-80
2021/04/10 09:40:18;;;;;;;2.15;1.83;;;15.00;54.60;;;;;;6203815;28;20136;-80
2021/04/10 09:43:20;;;;;;;4.00;1.88;;;15.40;53.50;;;;;;6221157;28;20473;-80
2021/04/10 09:46:31;;;;;;;1.77;1.55;;;16.10;55.40;;;;;;6220694;28;20053;-80
2021/04/10 09:49:38;;;;;;;2.92;1.90;;;16.60;52.70;;;;;;6204351;28;20062;-80
2021/04/10 09:52:38;;;;;;;3.03;1.85;;;16.80;52.20;;;;;;6220464;28;20072;-81
2021/04/10 09:55:49;;;;;;;1.67;1.10;;;17.10;49.80;;;;;;6204258;28;20069;-81
2021/04/10 09:58:52;;;;;;;1.80;1.40;;;17.70;48.00;;;;;;6220140;28;20022;-80
2021/04/10 10:01:52;;;;;;;1.77;1.50;;;17.50;49.70;;;;;;6203980;28;20041;-81
2021/04/10 10:04:53;;;;;;;1.50;1.40;;;18.40;47.50;;;;;;6220382;28;20041;-80
2021/04/10 10:07:53;;;;;;;2.55;1.52;;;19.00;47.50;;;;;;6219979;28;20037;-80
2021/04/10 10:10:59;;;;;;;2.88;1.58;;;19.80;47.50;;;;;;6220647;28;20117;-81
2021/04/10 10:13:59;;;;;;;1.50;1.40;;;20.00;47.30;;;;;;6204293;28;20048;-81
2021/04/10 10:17:10;;;;;;;1.73;1.52;;;20.30;45.20;;;;;;6187745;28;20392;-80
2021/04/10 10:20:11;;;;;;;2.25;1.63;;;20.70;43.10;;;;;;6220127;28;20049;-80
2021/04/10 10:23:15;;;;;;;2.90;1.80;;;21.20;42.20;;;;;;6203953;28;20164;-81
2021/04/10 10:26:21;;;;;;;3.08;1.80;;;21.50;44.90;;;;;;6203368;28;20490;-81
2021/04/10 10:29:22;;;;;;;3.47;1.90;;;21.90;41.70;;;;;;6203587;28;20034;-81
2021/04/10 10:32:22;;;;;;;3.90;1.90;;;22.40;42.60;;;;;;6187516;28;20492;-79
2021/04/10 10:35:25;;;;;;;2.20;2.00;;;22.70;42.50;;;;;;6204281;28;20380;-81
2021/04/10 10:38:39;;;;;;;3.05;1.75;;;22.20;41.90;;;;;;6219993;28;20034;-81
2021/04/10 10:41:43;;;;;;;1.98;1.60;;;22.00;41.90;;;;;;6171903;28;20046;-80
2021/04/10 10:44:43;;;;;;;2.58;1.73;;;21.70;42.60;;;;;;6203332;28;20121;-81
2021/04/10 10:47:44;;;;;;;2.83;2.00;;;21.90;41.60;;;;;;6187016;28;20034;-80
2021/04/10 10:50:45;;;;;;;2.95;1.77;;;22.00;43.30;;;;;;6220660;28;20053;-80
2021/04/10 10:53:49;;;;;;;3.75;1.95;;;22.10;44.60;;;;;;6219031;28;20088;-80
2021/04/10 10:56:50;;;;;;;2.50;2.00;;;22.00;42.20;;;;;;6187872;28;20022;-81
2021/04/10 10:59:50;;;;;;;2.05;1.60;;;22.50;43.60;;;;;;6218907;28;20125;-79
2021/04/10 11:02:51;;;;;;;2.55;2.08;;;22.60;43.90;;;;;;6203374;28;20445;-79
2021/04/10 11:05:52;;;;;;;3.65;1.80;;;22.90;41.90;;;;;;6218597;28;20038;-79
2021/04/10 11:08:52;;;;;;;4.43;2.30;;;22.80;43.80;;;;;;6187089;28;20080;-81
2021/04/10 11:12:13;;;;;;;2.97;2.03;;;22.30;45.40;;;;;;6206886;28;20033;-81
2021/04/10 11:15:14;;;;;;;3.22;2.05;;;22.10;41.80;;;;;;6192155;28;20033;-81
2021/04/10 11:18:31;;;;;;;3.40;2.20;;;22.10;46.30;;;;;;6218650;28;20036;-78
2021/04/10 11:21:32;;;;;;;3.03;2.17;;;21.70;48.80;;;;;;6218640;28;20025;-81
2021/04/10 11:24:48;;;;;;;2.88;2.00;;;21.60;47.40;;;;;;6218272;28;20036;-81
2021/04/10 11:27:49;;;;;;;4.53;1.88;;;21.50;48.30;;;;;;6217599;28;20026;-81
2021/04/10 11:31:22;;;;;;;2.17;1.98;;;21.70;48.30;;;;;;6218784;28;20034;-81
2021/04/10 11:34:49;;;;;;;2.42;1.80;;;22.10;48.70;;;;;;6115475;29;20494;-81
2021/04/10 11:37:51;;;;;;;4.55;2.17;;;22.10;45.70;;;;;;6096812;29;20646;-81
2021/04/10 11:40:52;;;;;;;3.45;2.38;;;22.80;44.30;;;;;;6065395;29;20092;-81
2021/04/10 11:43:54;;;;;;;4.50;2.38;;;22.80;44.30;;;;;;6065933;29;20056;-79
2021/04/10 11:47:00;;;;;;;3.75;2.22;;;22.80;48.10;;;;;;6096867;29;20047;-79
2021/04/10 11:50:27;;;;;;;2.50;2.05;;;22.90;46.10;;;;;;6103791;29;21304;-79
2021/04/10 11:53:35;;;;;;;3.70;2.28;;;22.80;42.90;;;;;;6115498;29;20055;-81
2021/04/10 11:56:35;;;;;;;3.58;2.20;;;23.10;44.30;;;;;;6096836;29;20052;-81
2021/04/10 11:59:36;;;;;;;7.40;2.28;;;22.20;48.00;;;;;;6096580;29;20750;-79
2021/04/10 12:02:46;;;;;;;4.15;2.03;;;22.70;48.60;;;;;;6080433;29;20044;-80
2021/04/10 12:05:47;;;;;;;3.47;2.53;;;22.40;47.00;;;;;;6096333;29;20118;-79
2021/04/10 12:08:48;;;;;;;3.08;2.03;;;22.30;50.00;;;;;;6133704;28;20038;-79
2021/04/10 12:11:49;;;;;;;4.57;2.42;;;22.10;50.50;;;;;;6217220;28;20103;-81
2021/04/10 12:14:49;;;;;;;3.60;2.33;;;22.00;50.80;;;;;;6185373;28;20436;-81
2021/04/10 12:17:50;;;;;;;3.47;2.53;;;22.10;51.80;;;;;;6185962;28;20023;-81
2021/04/10 12:20:52;;;;;;;3.53;2.33;;;22.10;51.60;;;;;;6217351;28;20084;-80
2021/04/10 12:23:52;;;;;;;3.38;2.35;;;22.00;52.90;;;;;;6200773;28;20494;-81
2021/04/10 12:26:56;;;;;;;5.18;2.35;;;22.00;53.70;;;;;;6217196;28;20156;-82
2021/04/10 12:29:56;;;;;;;3.40;2.40;;;21.70;51.90;;;;;;6217039;28;20025;-80
2021/04/10 12:32:57;;;;;;;4.20;2.60;;;21.60;50.40;;;;;;6200408;28;20060;-81
2021/04/10 12:35:58;;;;;;;3.13;2.30;;;21.50;53.10;;;;;;6216543;28;20388;-82
2021/04/10 12:38:59;;;;;;;4.55;2.50;;;21.30;52.00;;;;;;6200190;28;20050;-81
2021/04/10 12:41:59;;;;;;;3.95;2.85;;;21.00;49.40;;;;;;6210781;28;20093;-81
2021/04/10 12:45:05;;;;;;;5.88;2.80;;;20.60;79.10;;;;;;6219042;28;20041;-81
2021/04/10 12:48:05;;;;;;;4.82;2.58;;;20.60;48.80;;;;;;6185008;28;20040;-81
2021/04/10 12:51:06;;;;;;;5.85;3.05;;;20.30;47.80;;;;;;6217230;28;20030;-81
2021/04/10 12:54:07;;;;;;;4.50;3.00;;;20.40;62.50;;;;;;6218121;28;20050;-82
2021/04/10 12:57:08;;;;;;;4.78;3.15;;;20.40;61.70;;;;;;6220867;28;20022;-82
2021/04/10 13:00:10;;;;;;;7.47;3.28;;;20.20;59.80;;;;;;6200159;28;20030;-81
2021/04/10 13:03:10;;;;;;;8.02;3.15;;;20.00;62.60;;;;;;6200445;28;20038;-79
2021/04/10 13:06:11;;;;;;;4.28;2.60;;;20.00;65.60;;;;;;6217111;28;20046;-81
2021/04/10 13:09:11;;;;;;;3.45;2.60;;;19.80;63.40;;;;;;6184767;28;20384;-82
2021/04/10 13:12:13;;;;;;;6.10;3.22;;;19.90;65.00;;;;;;6218633;28;20026;-81
2021/04/10 13:15:14;;;;;;;3.42;2.47;;;19.70;69.20;;;;;;6216720;28;20034;-81
2021/04/10 13:18:14;;;;;;;4.22;2.92;;;19.50;68.00;;;;;;6216583;28;20593;-81
2021/04/10 13:21:15;;;;;;;3.55;2.70;;;19.60;65.40;;;;;;6200446;28;20025;-81
2021/04/10 13:24:17;;;;;;;5.40;3.80;;;19.20;56.40;;;;;;6218204;28;20049;-81
2021/04/10 13:27:18;;;;;;;5.50;4.32;;;19.10;54.80;;;;;;6216271;28;20434;-82
2021/04/10 13:30:20;;;;;;;5.63;3.78;;;19.20;55.30;;;;;;6200164;28;20032;-82
2021/04/10 13:33:20;;;;;;;5.82;3.05;;;19.40;52.70;;;;;;6218254;28;20088;-81
2021/04/10 13:36:21;;;;;;;4.70;2.75;;;19.80;53.70;;;;;;6216230;28;20252;-81
2021/04/10 13:39:21;;;;;;;4.75;2.67;;;19.80;54.60;;;;;;6218209;28;20046;-81
2021/04/10 13:42:22;;;;;;;5.25;2.60;;;20.20;51.60;;;;;;6216136;28;20036;-81
2021/04/10 13:45:23;;;;;;;5.00;2.60;;;20.30;49.50;;;;;;6218507;28;20065;-81
2021/04/10 13:48:24;;;;;;;4.53;2.67;;;20.30;49.40;;;;;;6216138;28;20384;-81
2021/04/10 13:51:24;;;;;;;8.15;2.92;;;20.30;48.10;;;;;;6204055;28;20384;-82
2021/04/10 13:54:25;;;;;;;4.70;2.80;;;19.90;48.60;;;;;;6188772;28;20045;-82
2021/04/10 13:57:26;;;;;;;3.42;2.55;;;19.40;49.60;;;;;;6204263;28;20554;-81
2021/04/10 14:00:27;;;;;;;3.30;2.55;;;19.10;51.40;;;;;;6220249;28;20621;-82
2021/04/10 14:03:27;;;;;;;5.03;2.63;;;19.00;48.10;;;;;;6220394;28;20507;-81
2021/04/10 14:06:29;;;;;;;4.13;2.55;;;18.70;46.60;;;;;;6222393;28;20034;-82
2021/04/10 14:09:30;;;;;;;3.42;2.63;;;18.70;47.40;;;;;;6219965;28;20034;-81
2021/04/10 14:12:31;;;;;;;5.30;3.45;;;18.80;49.00;;;;;;6220254;28;20037;-81
2021/04/10 14:15:33;;;;;;;4.38;2.47;;;19.20;47.80;;;;;;6219879;28;20030;-81
2021/04/10 14:18:35;;;;;;;4.30;2.47;;;19.60;43.70;;;;;;6204072;28;20034;-81
2021/04/10 14:21:36;;;;;;;;;;;19.50;43.60;;;;;;6204152;28;20077;-81
2021/04/10 14:24:37;;;;;;;2.55;2.25;;;19.10;45.10;;;;;;6221844;28;19909;-81
2021/04/10 14:27:39;;;;;;;4.57;2.50;;;19.10;45.10;;;;;;6220225;28;20038;-81
2021/04/10 14:30:40;;;;;;;2.42;2.22;;;19.30;45.70;;;;;;6200422;28;20033;-81
2021/04/10 14:34:02;;;;;;;3.83;2.22;;;19.20;46.20;;;;;;6188551;28;20116;-80
2021/04/10 14:37:03;;;;;;;;;;;21.10;45.50;;;;;;6221344;28;20113;-81
2021/04/10 14:40:04;;;;;;;2.58;2.30;;;19.10;56.50;;;;;;6219436;28;20279;-81
2021/04/10 14:43:05;;;;;;;3.30;2.50;;;18.80;57.20;;;;;;6219684;28;20030;-81
2021/04/10 14:46:06;;;;;;;3.13;1.92;;;18.90;58.50;;;;;;6219235;28;20048;-81
2021/04/10 14:49:07;;;;;;;3.10;2.20;;;18.40;59.00;;;;;;6219596;28;20484;-81
2021/04/10 14:52:07;;;;;;;4.63;2.40;;;18.40;58.20;;;;;;6203545;28;20065;-81
2021/04/10 14:55:10;;;;;;;6.07;2.38;;;18.30;59.20;;;;;;6218922;28;20045;-81
2021/04/10 14:58:11;;;;;;;5.65;2.30;;;18.10;63.40;;;;;;6188266;28;20025;-81
2021/04/10 15:01:12;;;;;;;3.28;2.03;;;17.80;54.20;;;;;;6219161;28;20033;-81
2021/04/10 15:04:12;;;;;;;4.93;2.25;;;17.90;50.70;;;;;;6219031;28;20116;-81
2021/04/10 15:07:13;;;;;;;4.38;2.50;;;18.00;51.50;;;;;;6219063;28;20767;-81
2021/04/10 15:10:14;;;;;;;3.75;2.65;;;18.10;53.30;;;;;;6218436;28;20433;-81
2021/04/10 15:13:15;;;;;;;4.22;3.22;;;18.60;55.10;;;;;;6218776;28;20038;-81
2021/04/10 15:16:16;;;;;;;3.15;2.80;;;19.00;50.70;;;;;;6218587;28;20388;-82
2021/04/10 15:19:17;;;;;;;3.53;2.60;;;19.30;51.20;;;;;;6218327;28;20030;-81
2021/04/10 15:22:18;;;;;;;3.38;3.00;;;19.50;46.10;;;;;;6202024;28;20080;-81
2021/04/10 15:25:18;;;;;;;3.92;2.80;;;19.60;47.60;;;;;;6218060;28;20037;-81
2021/04/10 15:28:19;;;;;;;5.80;2.70;;;19.50;49.40;;;;;;6214272;28;20033;-81
2021/04/10 15:31:19;;;;;;;6.97;2.67;;;19.50;50.80;;;;;;6218953;28;20109;-81
2021/04/10 15:34:21;;;;;;;4.90;2.58;;;19.50;48.60;;;;;;6186194;28;20038;-81
2021/04/10 15:37:22;;;;;;;2.80;2.30;;;19.20;48.30;;;;;;6219767;28;20124;-81
2021/04/10 15:40:22;;;;;;;2.40;2.03;;;19.10;48.90;;;;;;6211591;28;20413;-82
2021/04/10 15:43:23;;;;;;;3.40;2.20;;;19.00;47.10;;;;;;6217900;28;20088;-81
2021/04/10 15:46:23;;;;;;;4.68;2.55;;;18.90;50.90;;;;;;6186310;28;20034;-81
2021/04/10 15:49:24;;;;;;;3.35;2.50;;;18.70;51.70;;;;;;6217924;28;20029;-82
2021/04/10 15:52:25;;;;;;;3.30;2.78;;;18.80;50.10;;;;;;6214047;28;20116;-81
2021/04/10 15:55:25;;;;;;;4.88;2.50;;;18.80;50.40;;;;;;6190419;28;20044;-81
2021/04/10 15:58:26;;;;;;;3.42;2.28;;;18.80;50.70;;;;;;6218356;28;20124;-82